sensor_id;sensor_type;location;lat;lon;timestamp;pressure;altitude;pressure_sealevel;temperature;humidity
49813;BME280;35706;52.100;5.056;2023-05-18T00:00:28;102832.91;;;11.75;55.11
49813;BME280;35706;52.100;5.056;2023-05-18T00:01:28;102832.63;;;11.79;55.03
49813;BME280;35706;52.100;5.056;2023-05-18T00:02:29;102830.06;;;11.78;54.74
49813;BME280;35706;52.100;5.056;2023-05-18T00:03:30;102834.72;;;11.89;54.86
49813;BME280;35706;52.100;5.056;2023-05-18T00:04:33;102821.59;;;11.87;54.73
49813;BME280;35706;52.100;5.056;2023-05-18T00:05:33;102835.28;;;11.94;54.28
49813;BME280;35706;52.100;5.056;2023-05-18T00:06:33;102828.22;;;11.94;54.41
49813;BME280;35706;52.100;5.056;2023-05-18T00:07:34;102834.22;;;11.82;54.39
49813;BME280;35706;52.100;5.056;2023-05-18T00:08:37;102830.63;;;11.83;54.77
49813;BME280;35706;52.100;5.056;2023-05-18T00:09:37;102827.34;;;11.79;54.44
49813;BME280;35706;52.100;5.056;2023-05-18T00:10:37;102829.06;;;11.95;54.61
49813;BME280;35706;52.100;5.056;2023-05-18T00:11:38;102831.28;;;11.87;54.66
49813;BME280;35706;52.100;5.056;2023-05-18T00:12:40;102822.75;;;11.97;54.25
49813;BME280;35706;52.100;5.056;2023-05-18T00:13:40;102831.03;;;11.91;54.45
49813;BME280;35706;52.100;5.056;2023-05-18T00:14:41;102829.06;;;11.95;54.35
49813;BME280;35706;52.100;5.056;2023-05-18T00:15:41;102830.63;;;11.83;54.70
49813;BME280;35706;52.100;5.056;2023-05-18T00:16:41;102837.78;;;11.95;54.53
49813;BME280;35706;52.100;5.056;2023-05-18T00:17:41;102837.50;;;11.86;54.67
49813;BME280;35706;52.100;5.056;2023-05-18T00:18:42;102835.38;;;11.92;54.34
49813;BME280;35706;52.100;5.056;2023-05-18T00:19:44;102839.19;;;11.87;54.36
49813;BME280;35706;52.100;5.056;2023-05-18T00:20:45;102837.44;;;11.73;54.48
49813;BME280;35706;52.100;5.056;2023-05-18T00:21:46;102837.69;;;11.68;54.71
49813;BME280;35706;52.100;5.056;2023-05-18T00:22:47;102832.72;;;11.64;54.97
49813;BME280;35706;52.100;5.056;2023-05-18T00:23:47;102836.28;;;11.48;55.53
49813;BME280;35706;52.100;5.056;2023-05-18T00:24:49;102842.69;;;11.58;55.22
49813;BME280;35706;52.100;5.056;2023-05-18T00:25:49;102840.91;;;11.59;55.23
49813;BME280;35706;52.100;5.056;2023-05-18T00:26:50;102838.28;;;11.73;54.83
49813;BME280;35706;52.100;5.056;2023-05-18T00:27:50;102834.88;;;11.71;55.32
49813;BME280;35706;52.100;5.056;2023-05-18T00:28:51;102836.69;;;11.71;54.89
49813;BME280;35706;52.100;5.056;2023-05-18T00:29:51;102838.56;;;11.69;55.36
49813;BME280;35706;52.100;5.056;2023-05-18T00:30:52;102836.50;;;11.45;55.91
49813;BME280;35706;52.100;5.056;2023-05-18T00:31:53;102834.97;;;11.70;55.92
49813;BME280;35706;52.100;5.056;2023-05-18T00:32:53;102838.94;;;11.63;55.71
49813;BME280;35706;52.100;5.056;2023-05-18T00:33:53;102841.47;;;11.64;55.69
49813;BME280;35706;52.100;5.056;2023-05-18T00:34:53;102840.44;;;11.67;55.60
49813;BME280;35706;52.100;5.056;2023-05-18T00:35:54;102836.47;;;11.74;55.38
49813;BME280;35706;52.100;5.056;2023-05-18T00:36:56;102839.56;;;11.80;55.59
49813;BME280;35706;52.100;5.056;2023-05-18T00:37:56;102833.66;;;11.91;54.84
49813;BME280;35706;52.100;5.056;2023-05-18T00:38:57;102840.91;;;11.88;54.63
49813;BME280;35706;52.100;5.056;2023-05-18T00:39:58;102836.84;;;11.82;54.78
49813;BME280;35706;52.100;5.056;2023-05-18T00:40:58;102837.81;;;11.81;55.41
49813;BME280;35706;52.100;5.056;2023-05-18T00:41:58;102840.06;;;11.73;55.33
49813;BME280;35706;52.100;5.056;2023-05-18T00:42:59;102839.69;;;11.79;55.42
49813;BME280;35706;52.100;5.056;2023-05-18T00:44:02;102843.53;;;11.73;54.91
49813;BME280;35706;52.100;5.056;2023-05-18T00:45:04;102841.56;;;11.63;54.90
49813;BME280;35706;52.100;5.056;2023-05-18T00:46:04;102845.50;;;11.70;55.44
49813;BME280;35706;52.100;5.056;2023-05-18T00:47:05;102842.69;;;11.58;55.37
49813;BME280;35706;52.100;5.056;2023-05-18T00:48:05;102841.38;;;11.66;55.11
49813;BME280;35706;52.100;5.056;2023-05-18T00:49:06;102837.06;;;11.65;55.17
49813;BME280;35706;52.100;5.056;2023-05-18T00:50:06;102847.38;;;11.68;55.40
49813;BME280;35706;52.100;5.056;2023-05-18T00:51:07;102835.72;;;11.57;55.60
49813;BME280;35706;52.100;5.056;2023-05-18T00:52:07;102838.25;;;11.59;55.44
49813;BME280;35706;52.100;5.056;2023-05-18T00:53:08;102843.53;;;11.59;55.66
49813;BME280;35706;52.100;5.056;2023-05-18T00:54:11;102844.53;;;11.28;56.76
49813;BME280;35706;52.100;5.056;2023-05-18T00:55:12;102843.13;;;11.36;56.00
49813;BME280;35706;52.100;5.056;2023-05-18T00:56:14;102846.34;;;11.41;56.04
49813;BME280;35706;52.100;5.056;2023-05-18T00:57:14;102842.22;;;11.52;56.07
49813;BME280;35706;52.100;5.056;2023-05-18T00:58:15;102844.75;;;11.53;55.83
49813;BME280;35706;52.100;5.056;2023-05-18T00:59:16;102846.25;;;11.57;55.78
49813;BME280;35706;52.100;5.056;2023-05-18T01:00:17;102843.34;;;11.48;56.29
49813;BME280;35706;52.100;5.056;2023-05-18T01:01:23;102842.88;;;11.41;55.92
49813;BME280;35706;52.100;5.056;2023-05-18T01:02:27;102841.09;;;11.41;56.02
49813;BME280;35706;52.100;5.056;2023-05-18T01:03:29;102843.66;;;11.13;56.96
49813;BME280;35706;52.100;5.056;2023-05-18T01:04:29;102838.44;;;11.27;56.77
49813;BME280;35706;52.100;5.056;2023-05-18T01:05:30;102844.53;;;11.28;56.86
49813;BME280;35706;52.100;5.056;2023-05-18T01:06:31;102841.91;;;11.28;57.03
49813;BME280;35706;52.100;5.056;2023-05-18T01:07:36;102846.69;;;11.21;57.27
49813;BME280;35706;52.100;5.056;2023-05-18T01:08:36;102841.22;;;11.10;57.64
49813;BME280;35706;52.100;5.056;2023-05-18T01:09:37;102835.31;;;11.20;57.15
49813;BME280;35706;52.100;5.056;2023-05-18T01:10:39;102837.59;;;11.27;57.51
49813;BME280;35706;52.100;5.056;2023-05-18T01:11:51;102846.03;;;11.32;56.83
49813;BME280;35706;52.100;5.056;2023-05-18T01:13:34;102847.03;;;11.45;56.29
49813;BME280;35706;52.100;5.056;2023-05-18T01:15:53;102840.03;;;11.30;56.73
49813;BME280;35706;52.100;5.056;2023-05-18T01:17:09;102843.53;;;11.30;57.07
49813;BME280;35706;52.100;5.056;2023-05-18T01:18:18;102845.31;;;11.44;56.79
49813;BME280;35706;52.100;5.056;2023-05-18T01:19:34;102845.31;;;11.44;56.55
49813;BME280;35706;52.100;5.056;2023-05-18T01:22:11;102844.19;;;11.48;56.53
49813;BME280;35706;52.100;5.056;2023-05-18T01:24:51;102841.25;;;11.38;56.74
49813;BME280;35706;52.100;5.056;2023-05-18T01:26:58;102837.69;;;11.39;56.72
49813;BME280;35706;52.100;5.056;2023-05-18T01:28:02;102843.03;;;11.38;56.61
49813;BME280;35706;52.100;5.056;2023-05-18T01:29:08;102841.63;;;11.18;57.16
49813;BME280;35706;52.100;5.056;2023-05-18T01:30:09;102845.88;;;11.35;56.97
49813;BME280;35706;52.100;5.056;2023-05-18T01:31:09;102846.25;;;11.43;56.43
49813;BME280;35706;52.100;5.056;2023-05-18T01:32:17;102849.69;;;11.15;57.10
49813;BME280;35706;52.100;5.056;2023-05-18T01:33:18;102840.88;;;11.30;57.04
49813;BME280;35706;52.100;5.056;2023-05-18T01:34:18;102849.91;;;11.26;56.96
49813;BME280;35706;52.100;5.056;2023-05-18T01:35:19;102845.47;;;11.27;57.32
49813;BME280;35706;52.100;5.056;2023-05-18T01:36:19;102850.00;;;11.25;57.17
49813;BME280;35706;52.100;5.056;2023-05-18T01:37:20;102848.75;;;11.16;57.25
49813;BME280;35706;52.100;5.056;2023-05-18T01:38:22;102839.19;;;11.29;56.94
49813;BME280;35706;52.100;5.056;2023-05-18T01:39:23;102848.34;;;11.08;57.77
49813;BME280;35706;52.100;5.056;2023-05-18T01:40:24;102849.13;;;11.10;58.12
49813;BME280;35706;52.100;5.056;2023-05-18T01:41:29;102844.16;;;11.34;57.93
49813;BME280;35706;52.100;5.056;2023-05-18T01:42:39;102846.41;;;11.26;57.46
49813;BME280;35706;52.100;5.056;2023-05-18T01:43:59;102847.00;;;11.31;57.63
49813;BME280;35706;52.100;5.056;2023-05-18T01:45:08;102845.84;;;11.20;57.53
49813;BME280;35706;52.100;5.056;2023-05-18T01:46:26;102844.06;;;11.21;57.58
49813;BME280;35706;52.100;5.056;2023-05-18T01:47:30;102847.00;;;11.31;57.32
49813;BME280;35706;52.100;5.056;2023-05-18T01:48:35;102847.69;;;11.04;58.36
49813;BME280;35706;52.100;5.056;2023-05-18T01:50:04;102857.84;;;11.10;58.59
49813;BME280;35706;52.100;5.056;2023-05-18T01:51:07;102854.31;;;11.26;58.62
49813;BME280;35706;52.100;5.056;2023-05-18T01:52:15;102853.75;;;11.20;58.31
49813;BME280;35706;52.100;5.056;2023-05-18T01:53:22;102849.16;;;11.24;58.00
49813;BME280;35706;52.100;5.056;2023-05-18T01:54:23;102853.91;;;11.17;58.23
49813;BME280;35706;52.100;5.056;2023-05-18T01:55:28;102841.91;;;11.13;58.48
49813;BME280;35706;52.100;5.056;2023-05-18T01:56:31;102848.97;;;11.27;58.32
49813;BME280;35706;52.100;5.056;2023-05-18T01:57:34;102846.03;;;11.32;57.82
49813;BME280;35706;52.100;5.056;2023-05-18T01:58:36;102839.06;;;11.16;58.01
49813;BME280;35706;52.100;5.056;2023-05-18T01:59:37;102851.22;;;11.33;57.97
49813;BME280;35706;52.100;5.056;2023-05-18T02:00:38;102844.53;;;11.28;58.21
49813;BME280;35706;52.100;5.056;2023-05-18T02:01:38;102839.34;;;11.12;58.14
49813;BME280;35706;52.100;5.056;2023-05-18T02:02:39;102849.28;;;11.07;58.49
49813;BME280;35706;52.100;5.056;2023-05-18T02:03:39;102847.59;;;11.06;58.67
49813;BME280;35706;52.100;5.056;2023-05-18T02:04:40;102845.66;;;11.09;58.52
49813;BME280;35706;52.100;5.056;2023-05-18T02:05:40;102845.94;;;10.89;59.10
49813;BME280;35706;52.100;5.056;2023-05-18T02:06:41;102847.38;;;10.94;59.21
49813;BME280;35706;52.100;5.056;2023-05-18T02:07:41;102846.34;;;10.97;59.39
49813;BME280;35706;52.100;5.056;2023-05-18T02:08:46;102846.34;;;10.97;59.16
49813;BME280;35706;52.100;5.056;2023-05-18T02:09:47;102846.53;;;10.94;59.22
49813;BME280;35706;52.100;5.056;2023-05-18T02:10:47;102844.22;;;10.73;59.50
49813;BME280;35706;52.100;5.056;2023-05-18T02:11:48;102852.88;;;10.75;59.47
49813;BME280;35706;52.100;5.056;2023-05-18T02:12:48;102852.66;;;10.94;58.99
49813;BME280;35706;52.100;5.056;2023-05-18T02:13:51;102839.22;;;10.99;59.26
49813;BME280;35706;52.100;5.056;2023-05-18T02:14:52;102840.75;;;11.17;58.52
49813;BME280;35706;52.100;5.056;2023-05-18T02:15:54;102850.16;;;11.21;58.94
49813;BME280;35706;52.100;5.056;2023-05-18T02:16:54;102842.69;;;10.99;59.00
49813;BME280;35706;52.100;5.056;2023-05-18T02:17:56;102842.00;;;10.96;59.23
49813;BME280;35706;52.100;5.056;2023-05-18T02:18:57;102849.28;;;11.07;59.29
49813;BME280;35706;52.100;5.056;2023-05-18T02:19:59;102850.03;;;11.09;58.85
49813;BME280;35706;52.100;5.056;2023-05-18T02:20:59;102841.78;;;11.15;58.42
49813;BME280;35706;52.100;5.056;2023-05-18T02:22:00;102845.53;;;10.96;58.69
49813;BME280;35706;52.100;5.056;2023-05-18T02:23:00;102847.97;;;10.99;58.72
49813;BME280;35706;52.100;5.056;2023-05-18T02:24:01;102844.25;;;10.88;59.31
49813;BME280;35706;52.100;5.056;2023-05-18T02:25:02;102842.78;;;10.98;58.82
49813;BME280;35706;52.100;5.056;2023-05-18T02:26:03;102842.88;;;10.96;58.69
49813;BME280;35706;52.100;5.056;2023-05-18T02:27:04;102841.75;;;11.00;58.50
49813;BME280;35706;52.100;5.056;2023-05-18T02:28:05;102844.91;;;10.91;58.46
49813;BME280;35706;52.100;5.056;2023-05-18T02:29:05;102847.75;;;11.03;58.55
49813;BME280;35706;52.100;5.056;2023-05-18T02:30:07;102844.91;;;10.91;58.34
49813;BME280;35706;52.100;5.056;2023-05-18T02:31:09;102846.84;;;10.73;58.93
49813;BME280;35706;52.100;5.056;2023-05-18T02:32:11;102844.78;;;10.78;59.03
49813;BME280;35706;52.100;5.056;2023-05-18T02:33:11;102848.44;;;10.76;59.26
49813;BME280;35706;52.100;5.056;2023-05-18T02:34:11;102848.59;;;10.89;59.02
49813;BME280;35706;52.100;5.056;2023-05-18T02:35:15;102845.53;;;10.80;58.94
49813;BME280;35706;52.100;5.056;2023-05-18T02:36:17;102843.94;;;10.78;58.81
49813;BME280;35706;52.100;5.056;2023-05-18T02:37:17;102840.19;;;10.82;58.80
49813;BME280;35706;52.100;5.056;2023-05-18T02:38:18;102842.66;;;10.85;59.03
49813;BME280;35706;52.100;5.056;2023-05-18T02:39:19;102846.16;;;10.70;59.75
49813;BME280;35706;52.100;5.056;2023-05-18T02:40:19;102838.09;;;10.73;59.91
49813;BME280;35706;52.100;5.056;2023-05-18T02:41:19;102841.25;;;10.64;59.92
49813;BME280;35706;52.100;5.056;2023-05-18T02:42:20;102844.78;;;10.78;59.34
49813;BME280;35706;52.100;5.056;2023-05-18T02:43:20;102853.63;;;10.62;59.96
49813;BME280;35706;52.100;5.056;2023-05-18T02:44:20;102844.97;;;10.75;59.56
49813;BME280;35706;52.100;5.056;2023-05-18T02:45:21;102845.53;;;10.80;59.11
49813;BME280;35706;52.100;5.056;2023-05-18T02:46:22;102846.44;;;10.65;59.46
49813;BME280;35706;52.100;5.056;2023-05-18T02:47:22;102843.53;;;10.70;59.66
49813;BME280;35706;52.100;5.056;2023-05-18T02:48:22;102840.22;;;10.66;59.85
49813;BME280;35706;52.100;5.056;2023-05-18T02:49:23;102840.16;;;10.68;59.66
49813;BME280;35706;52.100;5.056;2023-05-18T02:50:23;102843.13;;;10.62;59.92
49813;BME280;35706;52.100;5.056;2023-05-18T02:51:24;102835.66;;;10.70;59.78
49813;BME280;35706;52.100;5.056;2023-05-18T02:52:24;102839.78;;;10.74;60.01
49813;BME280;35706;52.100;5.056;2023-05-18T02:53:25;102842.78;;;10.68;60.16
49813;BME280;35706;52.100;5.056;2023-05-18T02:54:26;102839.72;;;10.59;60.44
49813;BME280;35706;52.100;5.056;2023-05-18T02:55:26;102838.28;;;10.70;60.16
49813;BME280;35706;52.100;5.056;2023-05-18T02:56:27;102839.47;;;10.64;60.26
49813;BME280;35706;52.100;5.056;2023-05-18T02:57:28;102848.16;;;10.50;60.71
49813;BME280;35706;52.100;5.056;2023-05-18T02:58:28;102836.19;;;10.61;60.40
49813;BME280;35706;52.100;5.056;2023-05-18T02:59:28;102844.66;;;10.66;60.68
49813;BME280;35706;52.100;5.056;2023-05-18T03:00:29;102841.47;;;10.75;60.43
49813;BME280;35706;52.100;5.056;2023-05-18T03:01:30;102848.91;;;10.52;61.23
49813;BME280;35706;52.100;5.056;2023-05-18T03:02:33;102837.59;;;10.66;61.26
49813;BME280;35706;52.100;5.056;2023-05-18T03:03:38;102836.66;;;10.67;60.70
49813;BME280;35706;52.100;5.056;2023-05-18T03:04:39;102838.44;;;10.67;60.88
49813;BME280;35706;52.100;5.056;2023-05-18T03:05:39;102841.81;;;10.69;60.62
49813;BME280;35706;52.100;5.056;2023-05-18T03:06:40;102840.47;;;10.77;60.64
49813;BME280;35706;52.100;5.056;2023-05-18T03:07:40;102843.09;;;10.77;61.10
49813;BME280;35706;52.100;5.056;2023-05-18T03:08:41;102839.13;;;10.70;60.52
49813;BME280;35706;52.100;5.056;2023-05-18T03:09:41;102837.72;;;10.65;60.92
49813;BME280;35706;52.100;5.056;2023-05-18T03:10:42;102839.47;;;10.64;60.76
49813;BME280;35706;52.100;5.056;2023-05-18T03:11:42;102832.03;;;10.56;61.15
49813;BME280;35706;52.100;5.056;2023-05-18T03:12:42;102845.13;;;10.72;60.58
49813;BME280;35706;52.100;5.056;2023-05-18T03:13:43;102839.31;;;10.67;61.05
49813;BME280;35706;52.100;5.056;2023-05-18T03:14:43;102845.13;;;10.72;60.79
49813;BME280;35706;52.100;5.056;2023-05-18T03:15:43;102837.50;;;10.68;61.01
49813;BME280;35706;52.100;5.056;2023-05-18T03:16:47;102836.94;;;10.63;61.30
49813;BME280;35706;52.100;5.056;2023-05-18T03:17:47;102839.75;;;10.44;61.82
49813;BME280;35706;52.100;5.056;2023-05-18T03:18:48;102829.97;;;10.62;61.41
49813;BME280;35706;52.100;5.056;2023-05-18T03:19:48;102831.56;;;10.64;61.27
49813;BME280;35706;52.100;5.056;2023-05-18T03:20:49;102834.31;;;10.63;61.40
49813;BME280;35706;52.100;5.056;2023-05-18T03:21:51;102833.56;;;10.61;61.45
49813;BME280;35706;52.100;5.056;2023-05-18T03:22:51;102838.66;;;10.48;61.92
49813;BME280;35706;52.100;5.056;2023-05-18T03:23:51;102835.28;;;10.46;62.47
49813;BME280;35706;52.100;5.056;2023-05-18T03:24:51;102839.84;;;10.42;62.20
49813;BME280;35706;52.100;5.056;2023-05-18T03:25:54;102844.34;;;10.40;62.19
49813;BME280;35706;52.100;5.056;2023-05-18T03:26:55;102844.06;;;10.45;62.27
49813;BME280;35706;52.100;5.056;2023-05-18T03:27:56;102842.06;;;10.34;62.98
49813;BME280;35706;52.100;5.056;2023-05-18T03:28:57;102845.25;;;10.39;62.81
49813;BME280;35706;52.100;5.056;2023-05-18T03:29:57;102843.38;;;10.41;63.02
49813;BME280;35706;52.100;5.056;2023-05-18T03:30:58;102846.44;;;10.49;62.71
49813;BME280;35706;52.100;5.056;2023-05-18T03:31:58;102835.69;;;10.38;62.82
49813;BME280;35706;52.100;5.056;2023-05-18T03:32:59;102838.75;;;10.46;62.84
49813;BME280;35706;52.100;5.056;2023-05-18T03:34:00;102842.75;;;10.37;62.68
49813;BME280;35706;52.100;5.056;2023-05-18T03:35:02;102844.41;;;10.23;63.55
49813;BME280;35706;52.100;5.056;2023-05-18T03:36:04;102842.13;;;10.32;63.06
49813;BME280;35706;52.100;5.056;2023-05-18T03:37:04;102841.28;;;10.32;63.13
49813;BME280;35706;52.100;5.056;2023-05-18T03:38:05;102843.22;;;10.12;63.45
49813;BME280;35706;52.100;5.056;2023-05-18T03:39:06;102844.56;;;10.19;63.79
49813;BME280;35706;52.100;5.056;2023-05-18T03:40:09;102838.13;;;10.25;63.92
49813;BME280;35706;52.100;5.056;2023-05-18T03:41:11;102839.47;;;10.16;63.62
49813;BME280;35706;52.100;5.056;2023-05-18T03:42:11;102841.38;;;10.30;63.33
49813;BME280;35706;52.100;5.056;2023-05-18T03:43:11;102845.50;;;10.18;63.56
49813;BME280;35706;52.100;5.056;2023-05-18T03:44:12;102840.25;;;10.18;63.50
49813;BME280;35706;52.100;5.056;2023-05-18T03:45:12;102845.75;;;10.14;63.86
49813;BME280;35706;52.100;5.056;2023-05-18T03:46:13;102843.34;;;10.09;63.81
49813;BME280;35706;52.100;5.056;2023-05-18T03:47:13;102837.88;;;10.14;63.21
49813;BME280;35706;52.100;5.056;2023-05-18T03:48:13;102849.31;;;10.13;63.91
49813;BME280;35706;52.100;5.056;2023-05-18T03:49:14;102848.78;;;10.06;63.66
49813;BME280;35706;52.100;5.056;2023-05-18T03:50:14;102853.81;;;10.27;63.24
49813;BME280;35706;52.100;5.056;2023-05-18T03:51:15;102843.91;;;10.32;62.91
49813;BME280;35706;52.100;5.056;2023-05-18T03:52:15;102851.47;;;10.38;62.78
49813;BME280;35706;52.100;5.056;2023-05-18T03:53:21;102845.25;;;10.39;62.56
49813;BME280;35706;52.100;5.056;2023-05-18T03:54:22;102850.34;;;10.42;62.84
49813;BME280;35706;52.100;5.056;2023-05-18T03:55:23;102842.06;;;10.34;62.73
49813;BME280;35706;52.100;5.056;2023-05-18T03:56:24;102845.16;;;10.25;62.88
49813;BME280;35706;52.100;5.056;2023-05-18T03:57:25;102845.16;;;10.25;63.06
49813;BME280;35706;52.100;5.056;2023-05-18T03:58:26;102844.59;;;10.35;62.86
49813;BME280;35706;52.100;5.056;2023-05-18T03:59:26;102846.47;;;10.33;62.58
49813;BME280;35706;52.100;5.056;2023-05-18T04:00:27;102844.00;;;10.30;63.11
49813;BME280;35706;52.100;5.056;2023-05-18T04:01:27;102844.94;;;10.29;62.79
49813;BME280;35706;52.100;5.056;2023-05-18T04:02:29;102844.22;;;10.26;62.91
49813;BME280;35706;52.100;5.056;2023-05-18T04:03:30;102844.75;;;10.16;63.42
49813;BME280;35706;52.100;5.056;2023-05-18T04:04:30;102847.38;;;10.16;63.29
49813;BME280;35706;52.100;5.056;2023-05-18T04:05:31;102848.41;;;10.30;62.91
49813;BME280;35706;52.100;5.056;2023-05-18T04:06:31;102847.56;;;10.29;63.04
49813;BME280;35706;52.100;5.056;2023-05-18T04:07:34;102852.63;;;10.16;63.42
49813;BME280;35706;52.100;5.056;2023-05-18T04:08:42;102856.28;;;10.14;63.87
49813;BME280;35706;52.100;5.056;2023-05-18T04:09:45;102852.13;;;10.10;63.60
49813;BME280;35706;52.100;5.056;2023-05-18T04:10:45;102850.75;;;10.18;63.82
49813;BME280;35706;52.100;5.056;2023-05-18T04:11:45;102852.03;;;10.27;63.37
49813;BME280;35706;52.100;5.056;2023-05-18T04:12:46;102854.16;;;10.21;63.50
49813;BME280;35706;52.100;5.056;2023-05-18T04:13:46;102857.00;;;10.00;63.98
49813;BME280;35706;52.100;5.056;2023-05-18T04:14:47;102859.31;;;10.06;63.78
49813;BME280;35706;52.100;5.056;2023-05-18T04:15:49;102858.78;;;10.15;63.53
49813;BME280;35706;52.100;5.056;2023-05-18T04:16:50;102855.81;;;9.90;64.35
49813;BME280;35706;52.100;5.056;2023-05-18T04:17:51;102857.59;;;10.05;64.32
49813;BME280;35706;52.100;5.056;2023-05-18T04:18:52;102854.56;;;10.13;64.06
49813;BME280;35706;52.100;5.056;2023-05-18T04:19:53;102857.88;;;10.16;64.03
49813;BME280;35706;52.100;5.056;2023-05-18T04:20:53;102860.72;;;10.29;63.64
49813;BME280;35706;52.100;5.056;2023-05-18T04:21:54;102865.50;;;10.21;63.79
49813;BME280;35706;52.100;5.056;2023-05-18T04:22:55;102858.97;;;10.28;64.07
49813;BME280;35706;52.100;5.056;2023-05-18T04:23:56;102862.91;;;10.37;64.23
49813;BME280;35706;52.100;5.056;2023-05-18T04:25:02;102865.91;;;10.13;63.99
49813;BME280;35706;52.100;5.056;2023-05-18T04:26:02;102869.63;;;10.09;64.22
49813;BME280;35706;52.100;5.056;2023-05-18T04:27:03;102868.47;;;10.15;64.24
49813;BME280;35706;52.100;5.056;2023-05-18T04:28:03;102869.22;;;10.17;64.08
49813;BME280;35706;52.100;5.056;2023-05-18T04:29:04;102866.19;;;10.25;63.70
49813;BME280;35706;52.100;5.056;2023-05-18T04:30:08;102868.81;;;10.25;63.95
49813;BME280;35706;52.100;5.056;2023-05-18T04:31:09;102862.19;;;10.02;64.82
49813;BME280;35706;52.100;5.056;2023-05-18T04:32:13;102869.81;;;10.06;64.81
49813;BME280;35706;52.100;5.056;2023-05-18T04:33:13;102871.25;;;9.96;65.36
49813;BME280;35706;52.100;5.056;2023-05-18T04:34:15;102874.03;;;9.93;65.68
49813;BME280;35706;52.100;5.056;2023-05-18T04:35:17;102865.72;;;9.85;65.28
49813;BME280;35706;52.100;5.056;2023-05-18T04:36:17;102868.75;;;9.77;65.18
49813;BME280;35706;52.100;5.056;2023-05-18T04:37:19;102868.59;;;9.96;64.67
49813;BME280;35706;52.100;5.056;2023-05-18T04:38:20;102868.78;;;9.93;64.58
49813;BME280;35706;52.100;5.056;2023-05-18T04:39:24;102866.75;;;9.98;64.51
49813;BME280;35706;52.100;5.056;2023-05-18T04:40:24;102865.59;;;10.04;64.11
49813;BME280;35706;52.100;5.056;2023-05-18T04:41:25;102868.97;;;10.06;64.06
49813;BME280;35706;52.100;5.056;2023-05-18T04:42:25;102865.41;;;9.91;64.26
49813;BME280;35706;52.100;5.056;2023-05-18T04:43:26;102864.13;;;9.98;64.39
49813;BME280;35706;52.100;5.056;2023-05-18T04:44:28;102865.91;;;9.97;64.35
49813;BME280;35706;52.100;5.056;2023-05-18T04:45:28;102870.31;;;9.97;64.25
49813;BME280;35706;52.100;5.056;2023-05-18T04:46:29;102870.41;;;9.95;64.20
49813;BME280;35706;52.100;5.056;2023-05-18T04:47:29;102875.03;;;9.90;64.21
49813;BME280;35706;52.100;5.056;2023-05-18T04:48:30;102876.22;;;9.85;64.56
49813;BME280;35706;52.100;5.056;2023-05-18T04:49:31;102874.69;;;9.81;64.76
49813;BME280;35706;52.100;5.056;2023-05-18T04:50:32;102880.72;;;9.83;64.76
49813;BME280;35706;52.100;5.056;2023-05-18T04:51:32;102884.63;;;9.91;64.59
49813;BME280;35706;52.100;5.056;2023-05-18T04:52:33;102879.38;;;9.91;64.58
49813;BME280;35706;52.100;5.056;2023-05-18T04:53:35;102883.66;;;9.76;64.88
49813;BME280;35706;52.100;5.056;2023-05-18T04:54:38;102880.59;;;9.68;65.33
49813;BME280;35706;52.100;5.056;2023-05-18T04:55:40;102879.69;;;9.85;64.73
49813;BME280;35706;52.100;5.056;2023-05-18T04:56:41;102884.34;;;9.80;64.65
49813;BME280;35706;52.100;5.056;2023-05-18T04:57:42;102884.38;;;9.96;64.17
49813;BME280;35706;52.100;5.056;2023-05-18T04:58:43;102883.34;;;9.98;64.27
49813;BME280;35706;52.100;5.056;2023-05-18T04:59:47;102881.25;;;10.05;64.05
49813;BME280;35706;52.100;5.056;2023-05-18T05:00:47;102885.59;;;10.06;64.08
49813;BME280;35706;52.100;5.056;2023-05-18T05:01:47;102884.31;;;9.97;64.28
49813;BME280;35706;52.100;5.056;2023-05-18T05:02:48;102887.84;;;9.96;64.41
49813;BME280;35706;52.100;5.056;2023-05-18T05:03:48;102887.75;;;9.82;64.87
49813;BME280;35706;52.100;5.056;2023-05-18T05:04:48;102882.50;;;9.82;64.61
49813;BME280;35706;52.100;5.056;2023-05-18T05:05:49;102886.56;;;9.88;64.20
49813;BME280;35706;52.100;5.056;2023-05-18T05:06:49;102891.34;;;9.97;63.64
49813;BME280;35706;52.100;5.056;2023-05-18T05:07:51;102895.41;;;10.03;63.57
49813;BME280;35706;52.100;5.056;2023-05-18T05:08:51;102884.41;;;10.12;63.43
49813;BME280;35706;52.100;5.056;2023-05-18T05:09:52;102893.03;;;9.98;63.38
49813;BME280;35706;52.100;5.056;2023-05-18T05:10:52;102889.63;;;9.96;63.23
49813;BME280;35706;52.100;5.056;2023-05-18T05:11:52;102891.34;;;9.97;63.15
49813;BME280;35706;52.100;5.056;2023-05-18T05:12:54;102880.09;;;9.77;63.70
49813;BME280;35706;52.100;5.056;2023-05-18T05:13:55;102888.59;;;9.83;63.65
49813;BME280;35706;52.100;5.056;2023-05-18T05:14:55;102886.88;;;9.82;63.69
49813;BME280;35706;52.100;5.056;2023-05-18T05:15:55;102882.25;;;9.87;63.39
49813;BME280;35706;52.100;5.056;2023-05-18T05:16:56;102884.31;;;9.97;63.15
49813;BME280;35706;52.100;5.056;2023-05-18T05:17:57;102884.63;;;9.91;63.26
49813;BME280;35706;52.100;5.056;2023-05-18T05:18:57;102882.34;;;10.01;62.94
49813;BME280;35706;52.100;5.056;2023-05-18T05:19:58;102879.31;;;10.09;63.14
49813;BME280;35706;52.100;5.056;2023-05-18T05:20:58;102886.13;;;10.29;62.22
49813;BME280;35706;52.100;5.056;2023-05-18T05:21:58;102878.63;;;10.05;62.54
49813;BME280;35706;52.100;5.056;2023-05-18T05:22:58;102884.22;;;9.99;63.20
49813;BME280;35706;52.100;5.056;2023-05-18T05:23:59;102884.69;;;9.90;63.16
49813;BME280;35706;52.100;5.056;2023-05-18T05:25:04;102880.72;;;9.83;63.35
49813;BME280;35706;52.100;5.056;2023-05-18T05:26:04;102885.53;;;9.74;63.82
49813;BME280;35706;52.100;5.056;2023-05-18T05:27:05;102882.25;;;9.87;63.44
49813;BME280;35706;52.100;5.056;2023-05-18T05:28:05;102880.72;;;9.83;63.44
49813;BME280;35706;52.100;5.056;2023-05-18T05:29:05;102881.22;;;9.89;63.34